Terminal Aerodrome Forecast
Issued by NWS

Home | Current Version | Previous Version | Text Only | Print | Product List | Glossary On
Versions: 1 2 3 4 5 6 7 8 9 10 11 12 13 14 15 16 17 18 19 20 21 22 23 24
000
FTUS41 KPHI 160500
TAFMIV
TAF
KMIV 160540Z 1606/1706 32010G18KT P6SM BKN045 OVC070
      TEMPO 1606/1607 6SM -RA BR
     FM160800 32012G25KT P6SM BKN070
     FM161500 36010G18KT P6SM SKC
     FM162300 04008KT P6SM SCT250=

USA.gov is the U.S. government's official web portal to all federal, state and local government web resources and services.